sensor_id;sensor_type;location;lat;lon;timestamp;P1;durP1;ratioP1;P2;durP2;ratioP2
4527;SDS011;62320;51.520;6.818;2022-08-19T00:03:39;8.73;;;5.13;;
4527;SDS011;62320;51.520;6.818;2022-08-19T00:08:41;6.70;;;5.53;;
4527;SDS011;62320;51.520;6.818;2022-08-19T00:13:43;8.10;;;5.32;;
4527;SDS011;62320;51.520;6.818;2022-08-19T00:18:44;6.10;;;5.50;;
4527;SDS011;62320;51.520;6.818;2022-08-19T00:23:46;7.68;;;5.43;;
4527;SDS011;62320;51.520;6.818;2022-08-19T00:28:47;6.60;;;5.75;;
4527;SDS011;62320;51.520;6.818;2022-08-19T00:33:49;6.45;;;5.53;;
4527;SDS011;62320;51.520;6.818;2022-08-19T00:38:51;6.43;;;5.53;;
4527;SDS011;62320;51.520;6.818;2022-08-19T00:44:35;8.77;;;7.00;;
4527;SDS011;62320;51.520;6.818;2022-08-19T00:49:31;7.70;;;6.07;;
4527;SDS011;62320;51.520;6.818;2022-08-19T00:54:37;8.45;;;6.13;;
4527;SDS011;62320;51.520;6.818;2022-08-19T00:59:40;10.00;;;5.85;;
4527;SDS011;62320;51.520;6.818;2022-08-19T01:05:03;8.07;;;6.25;;
4527;SDS011;62320;51.520;6.818;2022-08-19T01:10:11;7.90;;;5.90;;
4527;SDS011;62320;51.520;6.818;2022-08-19T01:15:16;9.40;;;6.65;;
4527;SDS011;62320;51.520;6.818;2022-08-19T01:20:26;6.38;;;5.38;;
4527;SDS011;62320;51.520;6.818;2022-08-19T01:25:29;8.63;;;6.00;;
4527;SDS011;62320;51.520;6.818;2022-08-19T01:30:39;8.13;;;5.55;;
4527;SDS011;62320;51.520;6.818;2022-08-19T01:35:44;8.27;;;6.55;;
4527;SDS011;62320;51.520;6.818;2022-08-19T01:40:46;7.97;;;6.00;;
4527;SDS011;62320;51.520;6.818;2022-08-19T01:45:48;9.75;;;6.60;;
4527;SDS011;62320;51.520;6.818;2022-08-19T01:50:50;7.75;;;6.00;;
4527;SDS011;62320;51.520;6.818;2022-08-19T01:55:51;6.80;;;5.60;;
4527;SDS011;62320;51.520;6.818;2022-08-19T02:00:52;10.48;;;6.13;;
4527;SDS011;62320;51.520;6.818;2022-08-19T02:05:58;8.73;;;6.18;;
4527;SDS011;62320;51.520;6.818;2022-08-19T02:11:01;9.05;;;6.43;;
4527;SDS011;62320;51.520;6.818;2022-08-19T02:16:03;18.52;;;7.65;;
4527;SDS011;62320;51.520;6.818;2022-08-19T02:21:04;7.95;;;6.30;;
4527;SDS011;62320;51.520;6.818;2022-08-19T02:26:06;10.05;;;6.53;;
4527;SDS011;62320;51.520;6.818;2022-08-19T02:31:09;10.55;;;6.80;;
4527;SDS011;62320;51.520;6.818;2022-08-19T02:36:12;8.82;;;6.57;;
4527;SDS011;62320;51.520;6.818;2022-08-19T02:41:26;11.82;;;6.82;;
4527;SDS011;62320;51.520;6.818;2022-08-19T02:46:31;12.30;;;6.63;;
4527;SDS011;62320;51.520;6.818;2022-08-19T02:51:35;11.05;;;6.78;;
4527;SDS011;62320;51.520;6.818;2022-08-19T02:56:40;11.25;;;6.80;;
4527;SDS011;62320;51.520;6.818;2022-08-19T03:01:42;11.73;;;7.45;;
4527;SDS011;62320;51.520;6.818;2022-08-19T03:06:45;9.77;;;6.90;;
4527;SDS011;62320;51.520;6.818;2022-08-19T03:11:48;10.43;;;7.15;;
4527;SDS011;62320;51.520;6.818;2022-08-19T03:16:52;9.95;;;7.03;;
4527;SDS011;62320;51.520;6.818;2022-08-19T03:21:54;10.55;;;7.32;;
4527;SDS011;62320;51.520;6.818;2022-08-19T03:26:56;9.65;;;6.47;;
4527;SDS011;62320;51.520;6.818;2022-08-19T03:31:59;7.65;;;6.55;;
4527;SDS011;62320;51.520;6.818;2022-08-19T03:37:06;10.30;;;7.70;;
4527;SDS011;62320;51.520;6.818;2022-08-19T03:42:10;9.75;;;7.20;;
4527;SDS011;62320;51.520;6.818;2022-08-19T03:47:32;10.50;;;7.57;;
4527;SDS011;62320;51.520;6.818;2022-08-19T03:52:34;11.07;;;7.70;;
4527;SDS011;62320;51.520;6.818;2022-08-19T03:57:36;10.68;;;7.40;;
4527;SDS011;62320;51.520;6.818;2022-08-19T04:02:38;11.98;;;7.38;;
4527;SDS011;62320;51.520;6.818;2022-08-19T04:07:40;9.95;;;7.18;;
4527;SDS011;62320;51.520;6.818;2022-08-19T04:12:41;8.75;;;6.75;;
4527;SDS011;62320;51.520;6.818;2022-08-19T04:17:43;10.93;;;7.25;;
4527;SDS011;62320;51.520;6.818;2022-08-19T04:22:44;9.45;;;6.97;;
4527;SDS011;62320;51.520;6.818;2022-08-19T04:27:46;10.25;;;7.53;;
4527;SDS011;62320;51.520;6.818;2022-08-19T04:32:48;10.32;;;6.82;;
4527;SDS011;62320;51.520;6.818;2022-08-19T04:37:50;18.70;;;7.47;;
4527;SDS011;62320;51.520;6.818;2022-08-19T04:42:51;10.27;;;7.05;;
4527;SDS011;62320;51.520;6.818;2022-08-19T04:47:55;14.38;;;7.63;;
4527;SDS011;62320;51.520;6.818;2022-08-19T04:53:18;12.05;;;7.35;;
4527;SDS011;62320;51.520;6.818;2022-08-19T04:58:19;12.23;;;7.40;;
4527;SDS011;62320;51.520;6.818;2022-08-19T05:03:21;11.77;;;8.05;;
4527;SDS011;62320;51.520;6.818;2022-08-19T05:08:22;13.20;;;9.10;;
4527;SDS011;62320;51.520;6.818;2022-08-19T05:13:31;13.15;;;9.30;;
4527;SDS011;62320;51.520;6.818;2022-08-19T05:18:33;13.73;;;9.07;;
4527;SDS011;62320;51.520;6.818;2022-08-19T05:23:53;11.50;;;8.27;;
4527;SDS011;62320;51.520;6.818;2022-08-19T05:28:55;16.77;;;9.02;;
4527;SDS011;62320;51.520;6.818;2022-08-19T05:33:56;14.13;;;10.10;;
4527;SDS011;62320;51.520;6.818;2022-08-19T05:38:59;12.20;;;9.25;;
4527;SDS011;62320;51.520;6.818;2022-08-19T05:44:01;15.48;;;10.60;;
4527;SDS011;62320;51.520;6.818;2022-08-19T05:49:07;16.92;;;11.23;;
4527;SDS011;62320;51.520;6.818;2022-08-19T05:54:09;20.27;;;12.18;;
4527;SDS011;62320;51.520;6.818;2022-08-19T05:59:12;19.00;;;11.57;;
4527;SDS011;62320;51.520;6.818;2022-08-19T06:04:13;20.15;;;12.77;;
4527;SDS011;62320;51.520;6.818;2022-08-19T06:09:15;19.33;;;13.43;;
4527;SDS011;62320;51.520;6.818;2022-08-19T06:14:18;22.67;;;14.45;;
4527;SDS011;62320;51.520;6.818;2022-08-19T06:19:28;22.38;;;14.80;;
4527;SDS011;62320;51.520;6.818;2022-08-19T06:24:33;25.10;;;16.58;;
4527;SDS011;62320;51.520;6.818;2022-08-19T06:29:36;27.50;;;16.73;;
4527;SDS011;62320;51.520;6.818;2022-08-19T06:34:37;24.05;;;16.50;;
4527;SDS011;62320;51.520;6.818;2022-08-19T06:39:40;24.23;;;16.27;;
4527;SDS011;62320;51.520;6.818;2022-08-19T06:44:44;24.65;;;17.02;;
4527;SDS011;62320;51.520;6.818;2022-08-19T06:49:52;29.90;;;19.02;;
4527;SDS011;62320;51.520;6.818;2022-08-19T07:00:06;31.33;;;19.23;;
4527;SDS011;62320;51.520;6.818;2022-08-19T07:05:13;29.40;;;18.17;;
4527;SDS011;62320;51.520;6.818;2022-08-19T07:10:14;28.50;;;17.60;;
4527;SDS011;62320;51.520;6.818;2022-08-19T07:15:17;27.30;;;17.55;;
4527;SDS011;62320;51.520;6.818;2022-08-19T07:20:19;29.90;;;19.58;;
4527;SDS011;62320;51.520;6.818;2022-08-19T07:25:20;29.48;;;20.48;;
4527;SDS011;62320;51.520;6.818;2022-08-19T07:30:32;31.35;;;20.95;;
4527;SDS011;62320;51.520;6.818;2022-08-19T07:35:36;28.55;;;19.85;;
4527;SDS011;62320;51.520;6.818;2022-08-19T07:40:38;28.23;;;19.77;;
4527;SDS011;62320;51.520;6.818;2022-08-19T07:45:41;26.58;;;21.40;;
4527;SDS011;62320;51.520;6.818;2022-08-19T07:50:43;36.53;;;23.60;;
4527;SDS011;62320;51.520;6.818;2022-08-19T07:55:44;30.98;;;23.73;;
4527;SDS011;62320;51.520;6.818;2022-08-19T08:00:47;27.50;;;20.10;;
4527;SDS011;62320;51.520;6.818;2022-08-19T08:05:49;25.40;;;19.83;;
4527;SDS011;62320;51.520;6.818;2022-08-19T08:11:09;21.93;;;17.30;;
4527;SDS011;62320;51.520;6.818;2022-08-19T08:16:15;28.75;;;18.98;;
4527;SDS011;62320;51.520;6.818;2022-08-19T08:21:17;21.92;;;17.13;;
4527;SDS011;62320;51.520;6.818;2022-08-19T08:26:18;27.70;;;17.33;;
4527;SDS011;62320;51.520;6.818;2022-08-19T08:31:20;23.48;;;16.80;;
4527;SDS011;62320;51.520;6.818;2022-08-19T08:36:21;30.88;;;18.92;;
4527;SDS011;62320;51.520;6.818;2022-08-19T08:41:44;26.48;;;18.10;;
4527;SDS011;62320;51.520;6.818;2022-08-19T08:52:06;18.83;;;12.05;;
4527;SDS011;62320;51.520;6.818;2022-08-19T08:57:21;18.30;;;13.48;;
4527;SDS011;62320;51.520;6.818;2022-08-19T09:02:36;14.48;;;9.88;;
4527;SDS011;62320;51.520;6.818;2022-08-19T09:13:32;14.10;;;10.40;;
4527;SDS011;62320;51.520;6.818;2022-08-19T09:18:44;17.00;;;12.02;;
4527;SDS011;62320;51.520;6.818;2022-08-19T09:23:54;17.17;;;11.27;;
4527;SDS011;62320;51.520;6.818;2022-08-19T09:28:56;16.38;;;12.35;;
4527;SDS011;62320;51.520;6.818;2022-08-19T09:33:59;18.50;;;13.02;;
4527;SDS011;62320;51.520;6.818;2022-08-19T09:39:02;20.90;;;14.02;;
4527;SDS011;62320;51.520;6.818;2022-08-19T09:44:16;23.15;;;13.45;;
4527;SDS011;62320;51.520;6.818;2022-08-19T09:49:18;19.48;;;15.63;;
4527;SDS011;62320;51.520;6.818;2022-08-19T09:54:23;22.42;;;15.38;;
4527;SDS011;62320;51.520;6.818;2022-08-19T09:59:25;23.58;;;17.10;;
4527;SDS011;62320;51.520;6.818;2022-08-19T10:04:28;23.33;;;16.90;;
4527;SDS011;62320;51.520;6.818;2022-08-19T10:09:49;22.75;;;15.68;;
4527;SDS011;62320;51.520;6.818;2022-08-19T10:14:51;22.67;;;16.55;;
4527;SDS011;62320;51.520;6.818;2022-08-19T10:19:54;23.08;;;15.77;;
4527;SDS011;62320;51.520;6.818;2022-08-19T10:24:56;21.48;;;15.60;;
4527;SDS011;62320;51.520;6.818;2022-08-19T10:29:57;21.63;;;15.65;;
4527;SDS011;62320;51.520;6.818;2022-08-19T10:35:01;22.58;;;15.43;;
4527;SDS011;62320;51.520;6.818;2022-08-19T10:40:06;19.52;;;14.98;;
4527;SDS011;62320;51.520;6.818;2022-08-19T10:45:11;20.88;;;14.55;;
4527;SDS011;62320;51.520;6.818;2022-08-19T10:50:13;20.50;;;15.18;;
4527;SDS011;62320;51.520;6.818;2022-08-19T10:55:38;24.08;;;15.45;;
4527;SDS011;62320;51.520;6.818;2022-08-19T11:00:58;21.00;;;17.02;;
4527;SDS011;62320;51.520;6.818;2022-08-19T11:06:00;23.65;;;17.80;;
4527;SDS011;62320;51.520;6.818;2022-08-19T11:11:05;21.48;;;16.05;;
4527;SDS011;62320;51.520;6.818;2022-08-19T11:16:16;22.58;;;16.23;;
4527;SDS011;62320;51.520;6.818;2022-08-19T11:21:20;16.75;;;12.95;;
4527;SDS011;62320;51.520;6.818;2022-08-19T11:26:25;17.70;;;12.68;;
4527;SDS011;62320;51.520;6.818;2022-08-19T11:31:28;19.35;;;13.65;;
4527;SDS011;62320;51.520;6.818;2022-08-19T11:36:36;14.30;;;11.00;;
4527;SDS011;62320;51.520;6.818;2022-08-19T11:41:39;13.27;;;9.93;;
4527;SDS011;62320;51.520;6.818;2022-08-19T11:46:42;10.00;;;8.55;;
4527;SDS011;62320;51.520;6.818;2022-08-19T11:51:47;12.85;;;10.10;;
4527;SDS011;62320;51.520;6.818;2022-08-19T11:56:51;10.50;;;8.20;;
4527;SDS011;62320;51.520;6.818;2022-08-19T12:01:52;11.43;;;9.02;;
4527;SDS011;62320;51.520;6.818;2022-08-19T12:06:54;10.65;;;8.82;;
4527;SDS011;62320;51.520;6.818;2022-08-19T12:11:56;9.23;;;7.47;;
4527;SDS011;62320;51.520;6.818;2022-08-19T12:16:57;8.55;;;6.70;;
4527;SDS011;62320;51.520;6.818;2022-08-19T12:21:59;8.05;;;5.93;;
4527;SDS011;62320;51.520;6.818;2022-08-19T12:27:03;9.45;;;7.28;;
4527;SDS011;62320;51.520;6.818;2022-08-19T12:32:10;8.75;;;6.75;;
4527;SDS011;62320;51.520;6.818;2022-08-19T12:37:12;11.57;;;6.00;;
4527;SDS011;62320;51.520;6.818;2022-08-19T12:42:14;7.57;;;5.45;;
4527;SDS011;62320;51.520;6.818;2022-08-19T12:47:16;8.80;;;5.50;;
4527;SDS011;62320;51.520;6.818;2022-08-19T12:52:19;7.80;;;5.10;;
4527;SDS011;62320;51.520;6.818;2022-08-19T12:57:24;11.95;;;4.07;;
4527;SDS011;62320;51.520;6.818;2022-08-19T13:02:33;5.80;;;4.80;;
4527;SDS011;62320;51.520;6.818;2022-08-19T13:07:39;9.27;;;4.75;;
4527;SDS011;62320;51.520;6.818;2022-08-19T13:12:42;9.18;;;5.57;;
4527;SDS011;62320;51.520;6.818;2022-08-19T13:17:45;7.97;;;5.63;;
4527;SDS011;62320;51.520;6.818;2022-08-19T13:22:47;5.88;;;5.10;;
4527;SDS011;62320;51.520;6.818;2022-08-19T13:27:49;7.22;;;5.03;;
4527;SDS011;62320;51.520;6.818;2022-08-19T13:32:51;5.30;;;4.38;;
4527;SDS011;62320;51.520;6.818;2022-08-19T13:38:13;5.63;;;4.90;;
4527;SDS011;62320;51.520;6.818;2022-08-19T13:43:17;7.13;;;5.30;;
4527;SDS011;62320;51.520;6.818;2022-08-19T13:48:24;8.25;;;6.32;;
4527;SDS011;62320;51.520;6.818;2022-08-19T13:53:28;8.02;;;6.82;;
4527;SDS011;62320;51.520;6.818;2022-08-19T13:58:32;10.45;;;6.90;;
4527;SDS011;62320;51.520;6.818;2022-08-19T14:03:35;9.20;;;8.20;;
4527;SDS011;62320;51.520;6.818;2022-08-19T14:08:36;10.40;;;7.63;;
4527;SDS011;62320;51.520;6.818;2022-08-19T14:13:46;9.75;;;8.52;;
4527;SDS011;62320;51.520;6.818;2022-08-19T14:18:47;10.70;;;8.95;;
4527;SDS011;62320;51.520;6.818;2022-08-19T14:23:49;11.38;;;8.73;;
4527;SDS011;62320;51.520;6.818;2022-08-19T14:28:51;9.93;;;8.50;;
4527;SDS011;62320;51.520;6.818;2022-08-19T14:33:53;13.43;;;8.35;;
4527;SDS011;62320;51.520;6.818;2022-08-19T14:38:55;9.70;;;7.65;;
4527;SDS011;62320;51.520;6.818;2022-08-19T14:43:58;9.20;;;6.97;;
4527;SDS011;62320;51.520;6.818;2022-08-19T14:49:01;6.10;;;5.15;;
4527;SDS011;62320;51.520;6.818;2022-08-19T14:54:09;6.35;;;5.70;;
4527;SDS011;62320;51.520;6.818;2022-08-19T14:59:11;8.82;;;6.13;;
4527;SDS011;62320;51.520;6.818;2022-08-19T15:04:12;11.70;;;9.40;;
4527;SDS011;62320;51.520;6.818;2022-08-19T15:09:14;10.77;;;8.05;;
4527;SDS011;62320;51.520;6.818;2022-08-19T15:14:15;11.02;;;8.23;;
4527;SDS011;62320;51.520;6.818;2022-08-19T15:19:17;9.48;;;7.53;;
4527;SDS011;62320;51.520;6.818;2022-08-19T15:24:19;10.88;;;8.93;;
4527;SDS011;62320;51.520;6.818;2022-08-19T15:29:21;11.93;;;8.48;;
4527;SDS011;62320;51.520;6.818;2022-08-19T15:34:25;12.45;;;8.80;;
4527;SDS011;62320;51.520;6.818;2022-08-19T15:39:26;10.90;;;8.50;;
4527;SDS011;62320;51.520;6.818;2022-08-19T15:44:28;12.88;;;9.05;;
4527;SDS011;62320;51.520;6.818;2022-08-19T15:49:30;11.55;;;8.45;;
4527;SDS011;62320;51.520;6.818;2022-08-19T15:54:32;14.43;;;8.90;;
4527;SDS011;62320;51.520;6.818;2022-08-19T15:59:34;12.45;;;8.63;;
4527;SDS011;62320;51.520;6.818;2022-08-19T16:05:00;11.23;;;7.72;;
4527;SDS011;62320;51.520;6.818;2022-08-19T16:15:29;11.98;;;8.73;;
4527;SDS011;62320;51.520;6.818;2022-08-19T16:20:30;12.90;;;8.95;;
4527;SDS011;62320;51.520;6.818;2022-08-19T16:25:35;12.10;;;9.82;;
4527;SDS011;62320;51.520;6.818;2022-08-19T16:30:38;15.25;;;10.10;;
4527;SDS011;62320;51.520;6.818;2022-08-19T16:35:41;11.00;;;8.55;;
4527;SDS011;62320;51.520;6.818;2022-08-19T16:40:42;12.55;;;9.32;;
4527;SDS011;62320;51.520;6.818;2022-08-19T16:45:47;12.75;;;10.02;;
4527;SDS011;62320;51.520;6.818;2022-08-19T16:50:53;15.75;;;8.40;;
4527;SDS011;62320;51.520;6.818;2022-08-19T16:55:54;11.18;;;8.02;;
4527;SDS011;62320;51.520;6.818;2022-08-19T17:00:57;9.43;;;7.47;;
4527;SDS011;62320;51.520;6.818;2022-08-19T17:06:23;10.77;;;7.63;;
4527;SDS011;62320;51.520;6.818;2022-08-19T17:11:28;10.05;;;7.30;;
4527;SDS011;62320;51.520;6.818;2022-08-19T17:16:33;12.85;;;7.38;;
4527;SDS011;62320;51.520;6.818;2022-08-19T17:21:36;10.63;;;7.95;;
4527;SDS011;62320;51.520;6.818;2022-08-19T17:26:39;12.80;;;7.85;;
4527;SDS011;62320;51.520;6.818;2022-08-19T17:31:41;9.27;;;7.28;;
4527;SDS011;62320;51.520;6.818;2022-08-19T17:36:43;9.95;;;7.65;;
4527;SDS011;62320;51.520;6.818;2022-08-19T17:41:44;10.77;;;8.30;;
4527;SDS011;62320;51.520;6.818;2022-08-19T17:46:46;12.77;;;8.65;;
4527;SDS011;62320;51.520;6.818;2022-08-19T17:51:48;10.30;;;7.97;;
4527;SDS011;62320;51.520;6.818;2022-08-19T17:56:50;12.20;;;9.63;;
4527;SDS011;62320;51.520;6.818;2022-08-19T18:01:51;14.40;;;9.60;;
4527;SDS011;62320;51.520;6.818;2022-08-19T18:06:54;17.20;;;11.65;;
4527;SDS011;62320;51.520;6.818;2022-08-19T18:11:57;16.80;;;12.10;;
4527;SDS011;62320;51.520;6.818;2022-08-19T18:17:00;15.82;;;10.02;;
4527;SDS011;62320;51.520;6.818;2022-08-19T18:22:06;17.17;;;9.27;;
4527;SDS011;62320;51.520;6.818;2022-08-19T18:27:07;14.55;;;9.93;;
4527;SDS011;62320;51.520;6.818;2022-08-19T18:32:10;15.10;;;10.30;;
4527;SDS011;62320;51.520;6.818;2022-08-19T18:37:14;14.25;;;9.35;;
4527;SDS011;62320;51.520;6.818;2022-08-19T18:42:16;14.68;;;8.88;;
4527;SDS011;62320;51.520;6.818;2022-08-19T18:52:57;6.35;;;3.97;;
4527;SDS011;62320;51.520;6.818;2022-08-19T18:57:58;6.75;;;3.90;;
4527;SDS011;62320;51.520;6.818;2022-08-19T19:03:00;7.38;;;4.70;;
4527;SDS011;62320;51.520;6.818;2022-08-19T19:08:02;8.05;;;4.32;;
4527;SDS011;62320;51.520;6.818;2022-08-19T19:13:03;8.57;;;5.18;;
4527;SDS011;62320;51.520;6.818;2022-08-19T19:18:05;6.47;;;4.30;;
4527;SDS011;62320;51.520;6.818;2022-08-19T19:23:06;5.45;;;3.80;;
4527;SDS011;62320;51.520;6.818;2022-08-19T19:28:08;5.00;;;3.10;;
4527;SDS011;62320;51.520;6.818;2022-08-19T19:33:16;5.07;;;3.25;;
4527;SDS011;62320;51.520;6.818;2022-08-19T19:38:17;4.47;;;3.00;;
4527;SDS011;62320;51.520;6.818;2022-08-19T19:43:19;5.38;;;3.13;;
4527;SDS011;62320;51.520;6.818;2022-08-19T19:48:21;5.05;;;3.50;;
4527;SDS011;62320;51.520;6.818;2022-08-19T19:53:24;5.50;;;3.83;;
4527;SDS011;62320;51.520;6.818;2022-08-19T19:58:28;6.57;;;4.25;;
4527;SDS011;62320;51.520;6.818;2022-08-19T20:03:33;6.10;;;4.18;;
4527;SDS011;62320;51.520;6.818;2022-08-19T20:08:34;8.75;;;5.00;;
4527;SDS011;62320;51.520;6.818;2022-08-19T20:13:55;9.05;;;5.28;;
4527;SDS011;62320;51.520;6.818;2022-08-19T20:18:57;8.27;;;5.55;;
4527;SDS011;62320;51.520;6.818;2022-08-19T20:24:01;11.15;;;5.90;;
4527;SDS011;62320;51.520;6.818;2022-08-19T20:29:10;9.77;;;5.70;;
4527;SDS011;62320;51.520;6.818;2022-08-19T20:34:31;8.80;;;5.55;;
4527;SDS011;62320;51.520;6.818;2022-08-19T20:39:33;10.27;;;6.78;;
4527;SDS011;62320;51.520;6.818;2022-08-19T20:44:35;12.15;;;7.15;;
4527;SDS011;62320;51.520;6.818;2022-08-19T20:49:37;10.20;;;6.90;;
4527;SDS011;62320;51.520;6.818;2022-08-19T20:54:39;14.00;;;8.13;;
4527;SDS011;62320;51.520;6.818;2022-08-19T20:59:40;13.40;;;8.20;;
4527;SDS011;62320;51.520;6.818;2022-08-19T21:04:42;13.60;;;8.95;;
4527;SDS011;62320;51.520;6.818;2022-08-19T21:09:43;14.15;;;8.77;;
4527;SDS011;62320;51.520;6.818;2022-08-19T21:14:45;15.63;;;9.13;;
4527;SDS011;62320;51.520;6.818;2022-08-19T21:19:47;13.52;;;8.15;;
4527;SDS011;62320;51.520;6.818;2022-08-19T21:24:48;16.25;;;8.57;;
4527;SDS011;62320;51.520;6.818;2022-08-19T21:29:50;12.70;;;8.18;;
4527;SDS011;62320;51.520;6.818;2022-08-19T21:34:51;14.35;;;8.38;;
4527;SDS011;62320;51.520;6.818;2022-08-19T21:39:53;15.25;;;8.48;;
4527;SDS011;62320;51.520;6.818;2022-08-19T21:44:55;12.35;;;7.60;;
4527;SDS011;62320;51.520;6.818;2022-08-19T21:49:57;16.08;;;9.35;;
4527;SDS011;62320;51.520;6.818;2022-08-19T21:54:58;16.38;;;10.07;;
4527;SDS011;62320;51.520;6.818;2022-08-19T22:00:00;15.93;;;10.10;;
4527;SDS011;62320;51.520;6.818;2022-08-19T22:05:02;14.10;;;9.00;;
4527;SDS011;62320;51.520;6.818;2022-08-19T22:10:05;13.63;;;7.07;;
4527;SDS011;62320;51.520;6.818;2022-08-19T22:15:07;11.95;;;7.35;;
4527;SDS011;62320;51.520;6.818;2022-08-19T22:20:12;10.98;;;7.90;;
4527;SDS011;62320;51.520;6.818;2022-08-19T22:25:20;13.63;;;8.23;;
4527;SDS011;62320;51.520;6.818;2022-08-19T22:30:32;14.02;;;9.00;;
4527;SDS011;62320;51.520;6.818;2022-08-19T22:35:35;13.55;;;8.25;;
4527;SDS011;62320;51.520;6.818;2022-08-19T22:40:40;14.10;;;8.57;;
4527;SDS011;62320;51.520;6.818;2022-08-19T22:45:44;13.88;;;8.90;;
4527;SDS011;62320;51.520;6.818;2022-08-19T22:50:47;12.45;;;8.52;;
4527;SDS011;62320;51.520;6.818;2022-08-19T22:56:08;16.13;;;9.73;;
4527;SDS011;62320;51.520;6.818;2022-08-19T23:01:16;15.98;;;10.43;;
4527;SDS011;62320;51.520;6.818;2022-08-19T23:06:30;16.20;;;10.95;;
4527;SDS011;62320;51.520;6.818;2022-08-19T23:11:36;14.82;;;10.05;;
4527;SDS011;62320;51.520;6.818;2022-08-19T23:16:42;18.80;;;11.60;;
4527;SDS011;62320;51.520;6.818;2022-08-19T23:21:51;20.63;;;12.10;;
4527;SDS011;62320;51.520;6.818;2022-08-19T23:26:52;19.88;;;13.13;;
4527;SDS011;62320;51.520;6.818;2022-08-19T23:32:12;16.90;;;10.93;;
4527;SDS011;62320;51.520;6.818;2022-08-19T23:37:16;16.70;;;10.93;;
4527;SDS011;62320;51.520;6.818;2022-08-19T23:42:17;19.48;;;12.60;;
4527;SDS011;62320;51.520;6.818;2022-08-19T23:47:20;20.42;;;11.57;;
4527;SDS011;62320;51.520;6.818;2022-08-19T23:52:22;18.27;;;11.07;;
4527;SDS011;62320;51.520;6.818;2022-08-19T23:57:23;17.10;;;10.75;;
